sensor_id;sensor_type;location;lat;lon;timestamp;P1;durP1;ratioP1;P2;durP2;ratioP2
20379;SDS011;10349;48.666;8.948;2023-07-24T00:02:05;8.17;;;5.13;;
20379;SDS011;10349;48.666;8.948;2023-07-24T00:04:31;9.10;;;5.03;;
20379;SDS011;10349;48.666;8.948;2023-07-24T00:06:57;6.50;;;4.23;;
20379;SDS011;10349;48.666;8.948;2023-07-24T00:09:23;8.03;;;4.80;;
20379;SDS011;10349;48.666;8.948;2023-07-24T00:11:49;8.50;;;4.80;;
20379;SDS011;10349;48.666;8.948;2023-07-24T00:14:15;6.60;;;5.43;;
20379;SDS011;10349;48.666;8.948;2023-07-24T00:16:41;7.57;;;4.83;;
20379;SDS011;10349;48.666;8.948;2023-07-24T00:19:06;10.77;;;6.00;;
20379;SDS011;10349;48.666;8.948;2023-07-24T00:21:32;7.33;;;4.87;;
20379;SDS011;10349;48.666;8.948;2023-07-24T00:23:58;8.20;;;4.90;;
20379;SDS011;10349;48.666;8.948;2023-07-24T00:26:23;8.17;;;5.33;;
20379;SDS011;10349;48.666;8.948;2023-07-24T00:28:49;8.47;;;4.97;;
20379;SDS011;10349;48.666;8.948;2023-07-24T00:31:15;7.77;;;4.87;;
20379;SDS011;10349;48.666;8.948;2023-07-24T00:33:42;8.50;;;5.90;;
20379;SDS011;10349;48.666;8.948;2023-07-24T00:36:10;8.63;;;4.97;;
20379;SDS011;10349;48.666;8.948;2023-07-24T00:38:36;6.67;;;5.80;;
20379;SDS011;10349;48.666;8.948;2023-07-24T00:41:01;6.63;;;4.80;;
20379;SDS011;10349;48.666;8.948;2023-07-24T00:43:27;6.83;;;5.90;;
20379;SDS011;10349;48.666;8.948;2023-07-24T00:45:54;8.90;;;6.40;;
20379;SDS011;10349;48.666;8.948;2023-07-24T00:48:20;7.70;;;5.10;;
20379;SDS011;10349;48.666;8.948;2023-07-24T00:50:46;6.00;;;5.20;;
20379;SDS011;10349;48.666;8.948;2023-07-24T00:53:12;9.00;;;5.50;;
20379;SDS011;10349;48.666;8.948;2023-07-24T00:55:41;7.73;;;4.77;;
20379;SDS011;10349;48.666;8.948;2023-07-24T00:58:07;7.80;;;4.73;;
20379;SDS011;10349;48.666;8.948;2023-07-24T01:00:37;5.07;;;4.20;;
20379;SDS011;10349;48.666;8.948;2023-07-24T01:03:03;7.50;;;4.43;;
20379;SDS011;10349;48.666;8.948;2023-07-24T01:05:29;6.47;;;5.13;;
20379;SDS011;10349;48.666;8.948;2023-07-24T01:07:55;9.33;;;6.40;;
20379;SDS011;10349;48.666;8.948;2023-07-24T01:10:22;6.87;;;5.17;;
20379;SDS011;10349;48.666;8.948;2023-07-24T01:12:58;7.23;;;5.23;;
20379;SDS011;10349;48.666;8.948;2023-07-24T01:15:32;7.53;;;4.87;;
20379;SDS011;10349;48.666;8.948;2023-07-24T01:18:03;8.13;;;5.20;;
20379;SDS011;10349;48.666;8.948;2023-07-24T01:20:32;7.97;;;6.17;;
20379;SDS011;10349;48.666;8.948;2023-07-24T01:26:05;8.67;;;5.30;;
20379;SDS011;10349;48.666;8.948;2023-07-24T01:28:33;7.80;;;5.77;;
20379;SDS011;10349;48.666;8.948;2023-07-24T01:30:58;7.20;;;5.37;;
20379;SDS011;10349;48.666;8.948;2023-07-24T01:33:24;5.93;;;4.80;;
20379;SDS011;10349;48.666;8.948;2023-07-24T01:35:54;6.83;;;4.63;;
20379;SDS011;10349;48.666;8.948;2023-07-24T01:38:23;7.30;;;5.40;;
20379;SDS011;10349;48.666;8.948;2023-07-24T01:40:51;7.70;;;5.70;;
20379;SDS011;10349;48.666;8.948;2023-07-24T01:43:18;7.70;;;5.47;;
20379;SDS011;10349;48.666;8.948;2023-07-24T01:45:44;10.37;;;5.10;;
20379;SDS011;10349;48.666;8.948;2023-07-24T01:48:10;7.70;;;5.57;;
20379;SDS011;10349;48.666;8.948;2023-07-24T01:50:35;5.67;;;4.77;;
20379;SDS011;10349;48.666;8.948;2023-07-24T01:53:01;6.10;;;5.03;;
20379;SDS011;10349;48.666;8.948;2023-07-24T01:55:27;7.13;;;4.70;;
20379;SDS011;10349;48.666;8.948;2023-07-24T01:57:53;5.83;;;4.50;;
20379;SDS011;10349;48.666;8.948;2023-07-24T02:00:18;6.80;;;5.37;;
20379;SDS011;10349;48.666;8.948;2023-07-24T02:02:44;8.03;;;4.93;;
20379;SDS011;10349;48.666;8.948;2023-07-24T02:05:11;6.57;;;5.27;;
20379;SDS011;10349;48.666;8.948;2023-07-24T02:07:37;5.30;;;4.63;;
20379;SDS011;10349;48.666;8.948;2023-07-24T02:10:03;9.73;;;5.80;;
20379;SDS011;10349;48.666;8.948;2023-07-24T02:12:29;8.50;;;6.00;;
20379;SDS011;10349;48.666;8.948;2023-07-24T02:14:54;7.40;;;5.20;;
20379;SDS011;10349;48.666;8.948;2023-07-24T02:17:20;8.13;;;5.83;;
20379;SDS011;10349;48.666;8.948;2023-07-24T02:19:46;7.20;;;4.80;;
20379;SDS011;10349;48.666;8.948;2023-07-24T02:22:12;8.17;;;5.30;;
20379;SDS011;10349;48.666;8.948;2023-07-24T02:24:37;6.60;;;5.03;;
20379;SDS011;10349;48.666;8.948;2023-07-24T02:27:04;6.10;;;4.87;;
20379;SDS011;10349;48.666;8.948;2023-07-24T02:29:30;8.87;;;5.37;;
20379;SDS011;10349;48.666;8.948;2023-07-24T02:31:56;8.13;;;5.47;;
20379;SDS011;10349;48.666;8.948;2023-07-24T02:34:23;6.67;;;4.97;;
20379;SDS011;10349;48.666;8.948;2023-07-24T02:36:54;6.80;;;5.60;;
20379;SDS011;10349;48.666;8.948;2023-07-24T02:39:20;8.27;;;5.47;;
20379;SDS011;10349;48.666;8.948;2023-07-24T02:41:49;7.10;;;4.87;;
20379;SDS011;10349;48.666;8.948;2023-07-24T02:44:16;7.47;;;5.77;;
20379;SDS011;10349;48.666;8.948;2023-07-24T02:46:42;7.90;;;6.00;;
20379;SDS011;10349;48.666;8.948;2023-07-24T02:49:08;10.77;;;5.60;;
20379;SDS011;10349;48.666;8.948;2023-07-24T02:51:34;8.23;;;4.70;;
20379;SDS011;10349;48.666;8.948;2023-07-24T02:53:59;8.07;;;5.90;;
20379;SDS011;10349;48.666;8.948;2023-07-24T02:56:26;8.90;;;5.37;;
20379;SDS011;10349;48.666;8.948;2023-07-24T02:58:52;8.43;;;5.20;;
20379;SDS011;10349;48.666;8.948;2023-07-24T03:01:17;7.27;;;4.50;;
20379;SDS011;10349;48.666;8.948;2023-07-24T03:03:43;12.73;;;5.70;;
20379;SDS011;10349;48.666;8.948;2023-07-24T03:06:09;7.93;;;5.07;;
20379;SDS011;10349;48.666;8.948;2023-07-24T03:08:34;9.47;;;5.40;;
20379;SDS011;10349;48.666;8.948;2023-07-24T03:11:00;6.30;;;4.97;;
20379;SDS011;10349;48.666;8.948;2023-07-24T03:13:29;7.17;;;5.33;;
20379;SDS011;10349;48.666;8.948;2023-07-24T03:15:56;7.20;;;5.27;;
20379;SDS011;10349;48.666;8.948;2023-07-24T03:18:23;7.23;;;5.70;;
20379;SDS011;10349;48.666;8.948;2023-07-24T03:20:49;7.33;;;5.30;;
20379;SDS011;10349;48.666;8.948;2023-07-24T03:23:15;6.57;;;5.20;;
20379;SDS011;10349;48.666;8.948;2023-07-24T03:25:41;7.37;;;5.33;;
20379;SDS011;10349;48.666;8.948;2023-07-24T03:28:06;6.30;;;4.47;;
20379;SDS011;10349;48.666;8.948;2023-07-24T03:30:32;8.60;;;5.53;;
20379;SDS011;10349;48.666;8.948;2023-07-24T03:32:58;6.30;;;4.73;;
20379;SDS011;10349;48.666;8.948;2023-07-24T03:35:24;7.13;;;4.87;;
20379;SDS011;10349;48.666;8.948;2023-07-24T03:37:50;6.80;;;4.97;;
20379;SDS011;10349;48.666;8.948;2023-07-24T03:40:16;5.87;;;4.53;;
20379;SDS011;10349;48.666;8.948;2023-07-24T03:42:41;7.60;;;4.87;;
20379;SDS011;10349;48.666;8.948;2023-07-24T03:45:07;8.60;;;5.20;;
20379;SDS011;10349;48.666;8.948;2023-07-24T03:47:33;9.00;;;4.90;;
20379;SDS011;10349;48.666;8.948;2023-07-24T03:49:59;11.00;;;6.77;;
20379;SDS011;10349;48.666;8.948;2023-07-24T03:52:25;5.10;;;4.70;;
20379;SDS011;10349;48.666;8.948;2023-07-24T03:54:51;8.73;;;5.33;;
20379;SDS011;10349;48.666;8.948;2023-07-24T03:57:17;5.97;;;5.37;;
20379;SDS011;10349;48.666;8.948;2023-07-24T03:59:43;8.63;;;6.80;;
20379;SDS011;10349;48.666;8.948;2023-07-24T04:02:09;10.60;;;5.30;;
20379;SDS011;10349;48.666;8.948;2023-07-24T04:04:35;9.60;;;6.43;;
20379;SDS011;10349;48.666;8.948;2023-07-24T04:07:00;10.23;;;6.33;;
20379;SDS011;10349;48.666;8.948;2023-07-24T04:09:26;12.73;;;6.97;;
20379;SDS011;10349;48.666;8.948;2023-07-24T04:11:52;4.83;;;4.43;;
20379;SDS011;10349;48.666;8.948;2023-07-24T04:14:18;12.63;;;7.27;;
20379;SDS011;10349;48.666;8.948;2023-07-24T04:16:43;8.03;;;6.37;;
20379;SDS011;10349;48.666;8.948;2023-07-24T04:19:10;7.20;;;5.03;;
20379;SDS011;10349;48.666;8.948;2023-07-24T04:21:36;11.20;;;5.87;;
20379;SDS011;10349;48.666;8.948;2023-07-24T04:24:01;9.00;;;6.43;;
20379;SDS011;10349;48.666;8.948;2023-07-24T04:26:27;8.43;;;5.63;;
20379;SDS011;10349;48.666;8.948;2023-07-24T04:28:53;6.37;;;4.73;;
20379;SDS011;10349;48.666;8.948;2023-07-24T04:31:18;8.13;;;6.10;;
20379;SDS011;10349;48.666;8.948;2023-07-24T04:33:44;7.87;;;5.33;;
20379;SDS011;10349;48.666;8.948;2023-07-24T04:36:10;8.47;;;6.17;;
20379;SDS011;10349;48.666;8.948;2023-07-24T04:38:35;8.63;;;5.37;;
20379;SDS011;10349;48.666;8.948;2023-07-24T04:41:01;8.60;;;6.03;;
20379;SDS011;10349;48.666;8.948;2023-07-24T04:43:27;9.10;;;5.17;;
20379;SDS011;10349;48.666;8.948;2023-07-24T04:45:53;10.60;;;7.17;;
20379;SDS011;10349;48.666;8.948;2023-07-24T04:48:19;9.13;;;5.80;;
20379;SDS011;10349;48.666;8.948;2023-07-24T04:50:45;8.30;;;5.37;;
20379;SDS011;10349;48.666;8.948;2023-07-24T04:53:11;6.00;;;5.37;;
20379;SDS011;10349;48.666;8.948;2023-07-24T04:55:36;6.10;;;4.47;;
20379;SDS011;10349;48.666;8.948;2023-07-24T04:58:02;16.87;;;5.27;;
20379;SDS011;10349;48.666;8.948;2023-07-24T05:00:27;9.90;;;6.57;;
20379;SDS011;10349;48.666;8.948;2023-07-24T05:02:53;7.67;;;4.57;;
20379;SDS011;10349;48.666;8.948;2023-07-24T05:05:19;6.37;;;5.50;;
20379;SDS011;10349;48.666;8.948;2023-07-24T05:07:45;8.10;;;5.37;;
20379;SDS011;10349;48.666;8.948;2023-07-24T05:10:10;6.17;;;5.17;;
20379;SDS011;10349;48.666;8.948;2023-07-24T05:12:36;9.17;;;6.37;;
20379;SDS011;10349;48.666;8.948;2023-07-24T05:15:02;6.80;;;5.37;;
20379;SDS011;10349;48.666;8.948;2023-07-24T05:17:28;10.00;;;5.10;;
20379;SDS011;10349;48.666;8.948;2023-07-24T05:19:54;7.00;;;5.93;;
20379;SDS011;10349;48.666;8.948;2023-07-24T05:22:19;14.40;;;7.07;;
20379;SDS011;10349;48.666;8.948;2023-07-24T05:24:45;10.10;;;5.97;;
20379;SDS011;10349;48.666;8.948;2023-07-24T05:27:10;12.07;;;6.53;;
20379;SDS011;10349;48.666;8.948;2023-07-24T05:29:37;13.00;;;6.27;;
20379;SDS011;10349;48.666;8.948;2023-07-24T05:32:03;9.60;;;5.67;;
20379;SDS011;10349;48.666;8.948;2023-07-24T05:34:29;9.40;;;6.13;;
20379;SDS011;10349;48.666;8.948;2023-07-24T05:36:54;10.30;;;6.60;;
20379;SDS011;10349;48.666;8.948;2023-07-24T05:39:20;10.70;;;6.00;;
20379;SDS011;10349;48.666;8.948;2023-07-24T05:41:47;14.53;;;6.13;;
20379;SDS011;10349;48.666;8.948;2023-07-24T05:44:13;7.20;;;5.83;;
20379;SDS011;10349;48.666;8.948;2023-07-24T05:46:39;13.50;;;7.20;;
20379;SDS011;10349;48.666;8.948;2023-07-24T05:49:04;10.50;;;6.10;;
20379;SDS011;10349;48.666;8.948;2023-07-24T05:51:30;7.60;;;6.30;;
20379;SDS011;10349;48.666;8.948;2023-07-24T05:53:56;7.83;;;5.80;;
20379;SDS011;10349;48.666;8.948;2023-07-24T05:56:21;10.40;;;7.10;;
20379;SDS011;10349;48.666;8.948;2023-07-24T05:58:47;9.20;;;6.20;;
20379;SDS011;10349;48.666;8.948;2023-07-24T06:01:13;8.37;;;5.23;;
20379;SDS011;10349;48.666;8.948;2023-07-24T06:03:39;7.37;;;5.67;;
20379;SDS011;10349;48.666;8.948;2023-07-24T06:06:04;9.00;;;5.70;;
20379;SDS011;10349;48.666;8.948;2023-07-24T06:08:30;6.50;;;5.40;;
20379;SDS011;10349;48.666;8.948;2023-07-24T06:10:55;9.00;;;6.57;;
20379;SDS011;10349;48.666;8.948;2023-07-24T06:13:21;13.47;;;7.10;;
20379;SDS011;10349;48.666;8.948;2023-07-24T06:15:47;11.27;;;7.50;;
20379;SDS011;10349;48.666;8.948;2023-07-24T06:18:13;8.53;;;5.90;;
20379;SDS011;10349;48.666;8.948;2023-07-24T06:20:39;9.53;;;6.20;;
20379;SDS011;10349;48.666;8.948;2023-07-24T06:23:05;10.77;;;6.07;;
20379;SDS011;10349;48.666;8.948;2023-07-24T06:25:31;13.13;;;6.90;;
20379;SDS011;10349;48.666;8.948;2023-07-24T06:27:57;9.93;;;6.90;;
20379;SDS011;10349;48.666;8.948;2023-07-24T06:30:23;9.50;;;6.10;;
20379;SDS011;10349;48.666;8.948;2023-07-24T06:32:49;7.27;;;5.43;;
20379;SDS011;10349;48.666;8.948;2023-07-24T06:35:15;7.73;;;6.50;;
20379;SDS011;10349;48.666;8.948;2023-07-24T06:37:40;9.33;;;6.07;;
20379;SDS011;10349;48.666;8.948;2023-07-24T06:40:06;11.90;;;6.80;;
20379;SDS011;10349;48.666;8.948;2023-07-24T06:42:33;12.00;;;6.20;;
20379;SDS011;10349;48.666;8.948;2023-07-24T06:44:59;9.77;;;6.90;;
20379;SDS011;10349;48.666;8.948;2023-07-24T06:47:25;11.67;;;6.77;;
20379;SDS011;10349;48.666;8.948;2023-07-24T06:49:52;8.80;;;6.03;;
20379;SDS011;10349;48.666;8.948;2023-07-24T06:52:17;8.07;;;6.20;;
20379;SDS011;10349;48.666;8.948;2023-07-24T06:54:43;10.33;;;7.23;;
20379;SDS011;10349;48.666;8.948;2023-07-24T06:57:09;8.80;;;6.27;;
20379;SDS011;10349;48.666;8.948;2023-07-24T06:59:34;13.20;;;6.97;;
20379;SDS011;10349;48.666;8.948;2023-07-24T07:02:00;13.03;;;6.87;;
20379;SDS011;10349;48.666;8.948;2023-07-24T07:04:26;8.67;;;5.57;;
20379;SDS011;10349;48.666;8.948;2023-07-24T07:06:51;8.90;;;6.70;;
20379;SDS011;10349;48.666;8.948;2023-07-24T07:09:17;9.37;;;5.97;;
20379;SDS011;10349;48.666;8.948;2023-07-24T07:11:43;9.53;;;6.00;;
20379;SDS011;10349;48.666;8.948;2023-07-24T07:14:09;9.53;;;6.47;;
20379;SDS011;10349;48.666;8.948;2023-07-24T07:16:36;11.20;;;7.00;;
20379;SDS011;10349;48.666;8.948;2023-07-24T07:19:01;10.73;;;6.93;;
20379;SDS011;10349;48.666;8.948;2023-07-24T07:21:28;12.27;;;6.73;;
20379;SDS011;10349;48.666;8.948;2023-07-24T07:23:53;7.00;;;6.10;;
20379;SDS011;10349;48.666;8.948;2023-07-24T07:26:20;9.53;;;6.27;;
20379;SDS011;10349;48.666;8.948;2023-07-24T07:28:45;8.33;;;6.20;;
20379;SDS011;10349;48.666;8.948;2023-07-24T07:31:11;10.80;;;6.87;;
20379;SDS011;10349;48.666;8.948;2023-07-24T07:33:37;7.67;;;6.07;;
20379;SDS011;10349;48.666;8.948;2023-07-24T07:36:03;11.23;;;6.63;;
20379;SDS011;10349;48.666;8.948;2023-07-24T07:38:29;12.97;;;6.10;;
20379;SDS011;10349;48.666;8.948;2023-07-24T07:40:55;11.20;;;5.60;;
20379;SDS011;10349;48.666;8.948;2023-07-24T07:43:21;11.53;;;6.63;;
20379;SDS011;10349;48.666;8.948;2023-07-24T07:45:46;10.43;;;6.40;;
20379;SDS011;10349;48.666;8.948;2023-07-24T07:48:12;10.23;;;7.07;;
20379;SDS011;10349;48.666;8.948;2023-07-24T07:50:38;10.33;;;7.00;;
20379;SDS011;10349;48.666;8.948;2023-07-24T07:53:03;12.10;;;7.17;;
20379;SDS011;10349;48.666;8.948;2023-07-24T07:55:29;11.10;;;7.47;;
20379;SDS011;10349;48.666;8.948;2023-07-24T07:57:55;6.47;;;5.63;;
20379;SDS011;10349;48.666;8.948;2023-07-24T08:00:20;9.80;;;6.90;;
20379;SDS011;10349;48.666;8.948;2023-07-24T08:02:46;15.50;;;7.70;;
20379;SDS011;10349;48.666;8.948;2023-07-24T08:05:13;9.90;;;6.73;;
20379;SDS011;10349;48.666;8.948;2023-07-24T08:07:40;8.03;;;6.03;;
20379;SDS011;10349;48.666;8.948;2023-07-24T08:10:06;8.27;;;5.40;;
20379;SDS011;10349;48.666;8.948;2023-07-24T08:12:32;10.73;;;6.33;;
20379;SDS011;10349;48.666;8.948;2023-07-24T08:14:58;6.10;;;5.50;;
20379;SDS011;10349;48.666;8.948;2023-07-24T08:17:24;6.10;;;4.30;;
20379;SDS011;10349;48.666;8.948;2023-07-24T08:19:49;10.47;;;5.37;;
20379;SDS011;10349;48.666;8.948;2023-07-24T08:22:15;7.23;;;5.03;;
20379;SDS011;10349;48.666;8.948;2023-07-24T08:24:41;8.33;;;4.90;;
20379;SDS011;10349;48.666;8.948;2023-07-24T08:27:06;9.73;;;5.43;;
20379;SDS011;10349;48.666;8.948;2023-07-24T08:29:32;5.90;;;4.60;;
20379;SDS011;10349;48.666;8.948;2023-07-24T08:32:00;10.50;;;5.50;;
20379;SDS011;10349;48.666;8.948;2023-07-24T08:34:25;4.33;;;3.93;;
20379;SDS011;10349;48.666;8.948;2023-07-24T08:36:51;5.93;;;3.90;;
20379;SDS011;10349;48.666;8.948;2023-07-24T08:39:16;8.43;;;4.03;;
20379;SDS011;10349;48.666;8.948;2023-07-24T08:41:42;7.10;;;4.43;;
20379;SDS011;10349;48.666;8.948;2023-07-24T08:44:08;3.90;;;3.50;;
20379;SDS011;10349;48.666;8.948;2023-07-24T08:46:36;4.00;;;3.60;;
20379;SDS011;10349;48.666;8.948;2023-07-24T08:49:03;8.17;;;5.20;;
20379;SDS011;10349;48.666;8.948;2023-07-24T08:51:29;5.13;;;4.63;;
20379;SDS011;10349;48.666;8.948;2023-07-24T08:53:56;10.50;;;4.70;;
20379;SDS011;10349;48.666;8.948;2023-07-24T08:56:22;7.03;;;4.23;;
20379;SDS011;10349;48.666;8.948;2023-07-24T08:58:48;7.27;;;5.20;;
20379;SDS011;10349;48.666;8.948;2023-07-24T09:01:14;4.70;;;4.30;;
20379;SDS011;10349;48.666;8.948;2023-07-24T09:03:40;5.33;;;4.53;;
20379;SDS011;10349;48.666;8.948;2023-07-24T09:06:06;4.47;;;4.07;;
20379;SDS011;10349;48.666;8.948;2023-07-24T09:08:36;5.33;;;3.00;;
20379;SDS011;10349;48.666;8.948;2023-07-24T09:11:03;6.50;;;4.30;;
20379;SDS011;10349;48.666;8.948;2023-07-24T09:13:30;5.30;;;4.80;;
20379;SDS011;10349;48.666;8.948;2023-07-24T09:15:56;4.60;;;3.70;;
20379;SDS011;10349;48.666;8.948;2023-07-24T09:18:22;4.27;;;3.90;;
20379;SDS011;10349;48.666;8.948;2023-07-24T09:20:48;4.23;;;3.80;;
20379;SDS011;10349;48.666;8.948;2023-07-24T09:23:14;5.33;;;3.90;;
20379;SDS011;10349;48.666;8.948;2023-07-24T09:25:43;4.80;;;3.63;;
20379;SDS011;10349;48.666;8.948;2023-07-24T09:28:13;7.77;;;4.57;;
20379;SDS011;10349;48.666;8.948;2023-07-24T09:30:40;5.17;;;4.67;;
20379;SDS011;10349;48.666;8.948;2023-07-24T09:33:06;9.60;;;4.97;;
20379;SDS011;10349;48.666;8.948;2023-07-24T09:35:33;4.80;;;4.20;;
20379;SDS011;10349;48.666;8.948;2023-07-24T09:38:03;6.37;;;4.60;;
20379;SDS011;10349;48.666;8.948;2023-07-24T09:40:37;5.57;;;4.97;;
20379;SDS011;10349;48.666;8.948;2023-07-24T09:43:14;7.40;;;4.40;;
20379;SDS011;10349;48.666;8.948;2023-07-24T09:45:40;5.90;;;4.20;;
20379;SDS011;10349;48.666;8.948;2023-07-24T09:48:06;12.23;;;5.20;;
20379;SDS011;10349;48.666;8.948;2023-07-24T09:50:36;6.77;;;4.77;;
20379;SDS011;10349;48.666;8.948;2023-07-24T09:53:58;7.37;;;5.70;;
20379;SDS011;10349;48.666;8.948;2023-07-24T09:56:12;5.90;;;4.50;;
20379;SDS011;10349;48.666;8.948;2023-07-24T09:58:39;6.00;;;5.13;;
20379;SDS011;10349;48.666;8.948;2023-07-24T10:01:08;6.70;;;5.07;;
20379;SDS011;10349;48.666;8.948;2023-07-24T10:03:35;7.57;;;4.93;;
20379;SDS011;10349;48.666;8.948;2023-07-24T10:06:12;8.23;;;6.50;;
20379;SDS011;10349;48.666;8.948;2023-07-24T10:08:40;8.13;;;5.00;;
20379;SDS011;10349;48.666;8.948;2023-07-24T10:11:06;5.63;;;4.47;;
20379;SDS011;10349;48.666;8.948;2023-07-24T10:13:34;5.47;;;4.90;;
20379;SDS011;10349;48.666;8.948;2023-07-24T10:16:02;12.43;;;4.23;;
20379;SDS011;10349;48.666;8.948;2023-07-24T10:18:30;5.30;;;4.80;;
20379;SDS011;10349;48.666;8.948;2023-07-24T10:21:03;11.20;;;5.47;;
20379;SDS011;10349;48.666;8.948;2023-07-24T10:23:30;6.30;;;5.33;;
20379;SDS011;10349;48.666;8.948;2023-07-24T10:26:02;8.00;;;4.80;;
20379;SDS011;10349;48.666;8.948;2023-07-24T10:28:40;6.20;;;5.60;;
20379;SDS011;10349;48.666;8.948;2023-07-24T10:31:07;11.87;;;5.53;;
20379;SDS011;10349;48.666;8.948;2023-07-24T10:33:44;8.23;;;5.67;;
20379;SDS011;10349;48.666;8.948;2023-07-24T10:36:10;8.33;;;5.53;;
20379;SDS011;10349;48.666;8.948;2023-07-24T10:38:42;10.63;;;6.00;;
20379;SDS011;10349;48.666;8.948;2023-07-24T10:41:08;7.13;;;5.33;;
20379;SDS011;10349;48.666;8.948;2023-07-24T10:43:42;12.30;;;6.23;;
20379;SDS011;10349;48.666;8.948;2023-07-24T10:46:12;10.50;;;5.47;;
20379;SDS011;10349;48.666;8.948;2023-07-24T10:48:43;9.17;;;6.37;;
20379;SDS011;10349;48.666;8.948;2023-07-24T10:51:16;11.47;;;6.60;;
20379;SDS011;10349;48.666;8.948;2023-07-24T10:53:51;13.57;;;5.70;;
20379;SDS011;10349;48.666;8.948;2023-07-24T10:56:18;7.83;;;5.00;;
20379;SDS011;10349;48.666;8.948;2023-07-24T10:58:43;7.57;;;6.53;;
20379;SDS011;10349;48.666;8.948;2023-07-24T11:01:09;13.03;;;6.10;;
20379;SDS011;10349;48.666;8.948;2023-07-24T11:03:36;8.67;;;5.27;;
20379;SDS011;10349;48.666;8.948;2023-07-24T11:06:03;7.10;;;6.43;;
20379;SDS011;10349;48.666;8.948;2023-07-24T11:08:29;9.77;;;6.70;;
20379;SDS011;10349;48.666;8.948;2023-07-24T11:10:56;7.57;;;5.87;;
20379;SDS011;10349;48.666;8.948;2023-07-24T11:13:24;8.57;;;6.20;;
20379;SDS011;10349;48.666;8.948;2023-07-24T11:15:51;7.97;;;6.70;;
20379;SDS011;10349;48.666;8.948;2023-07-24T11:18:18;6.90;;;5.47;;
20379;SDS011;10349;48.666;8.948;2023-07-24T11:20:48;6.90;;;5.60;;
20379;SDS011;10349;48.666;8.948;2023-07-24T11:23:21;7.27;;;5.40;;
20379;SDS011;10349;48.666;8.948;2023-07-24T11:25:50;7.80;;;5.43;;
20379;SDS011;10349;48.666;8.948;2023-07-24T11:28:17;6.73;;;5.27;;
20379;SDS011;10349;48.666;8.948;2023-07-24T11:30:43;6.33;;;5.73;;
20379;SDS011;10349;48.666;8.948;2023-07-24T11:33:09;7.23;;;4.87;;
20379;SDS011;10349;48.666;8.948;2023-07-24T11:35:36;6.70;;;5.70;;
20379;SDS011;10349;48.666;8.948;2023-07-24T11:38:05;6.97;;;5.40;;
20379;SDS011;10349;48.666;8.948;2023-07-24T11:40:37;6.47;;;5.10;;
20379;SDS011;10349;48.666;8.948;2023-07-24T11:43:04;6.93;;;5.30;;
20379;SDS011;10349;48.666;8.948;2023-07-24T11:45:30;5.73;;;5.13;;
20379;SDS011;10349;48.666;8.948;2023-07-24T11:48:08;9.90;;;4.80;;
20379;SDS011;10349;48.666;8.948;2023-07-24T11:50:46;5.97;;;5.17;;
20379;SDS011;10349;48.666;8.948;2023-07-24T11:53:20;5.93;;;4.80;;
20379;SDS011;10349;48.666;8.948;2023-07-24T11:55:47;6.77;;;5.33;;
20379;SDS011;10349;48.666;8.948;2023-07-24T11:58:14;6.73;;;5.23;;
20379;SDS011;10349;48.666;8.948;2023-07-24T12:00:41;7.80;;;5.60;;
20379;SDS011;10349;48.666;8.948;2023-07-24T12:03:07;8.07;;;5.23;;
20379;SDS011;10349;48.666;8.948;2023-07-24T12:05:43;6.63;;;6.03;;
20379;SDS011;10349;48.666;8.948;2023-07-24T12:08:12;8.80;;;6.53;;
20379;SDS011;10349;48.666;8.948;2023-07-24T12:10:39;6.60;;;5.57;;
20379;SDS011;10349;48.666;8.948;2023-07-24T12:13:05;6.47;;;5.30;;
20379;SDS011;10349;48.666;8.948;2023-07-24T12:15:32;11.17;;;6.40;;
20379;SDS011;10349;48.666;8.948;2023-07-24T12:18:00;6.70;;;5.43;;
20379;SDS011;10349;48.666;8.948;2023-07-24T12:20:27;7.30;;;5.70;;
20379;SDS011;10349;48.666;8.948;2023-07-24T12:22:53;5.00;;;4.60;;
20379;SDS011;10349;48.666;8.948;2023-07-24T12:25:19;6.30;;;5.07;;
20379;SDS011;10349;48.666;8.948;2023-07-24T12:27:45;7.33;;;5.10;;
20379;SDS011;10349;48.666;8.948;2023-07-24T12:30:12;5.90;;;5.30;;
20379;SDS011;10349;48.666;8.948;2023-07-24T12:32:38;5.50;;;5.00;;
20379;SDS011;10349;48.666;8.948;2023-07-24T12:35:03;6.83;;;5.53;;
20379;SDS011;10349;48.666;8.948;2023-07-24T12:37:30;6.43;;;5.13;;
20379;SDS011;10349;48.666;8.948;2023-07-24T12:39:56;4.67;;;4.23;;
20379;SDS011;10349;48.666;8.948;2023-07-24T12:42:22;7.00;;;5.10;;
20379;SDS011;10349;48.666;8.948;2023-07-24T12:44:48;6.13;;;5.63;;
20379;SDS011;10349;48.666;8.948;2023-07-24T12:47:15;4.83;;;4.40;;
20379;SDS011;10349;48.666;8.948;2023-07-24T12:49:41;5.70;;;5.10;;
20379;SDS011;10349;48.666;8.948;2023-07-24T12:52:07;5.23;;;4.73;;
20379;SDS011;10349;48.666;8.948;2023-07-24T12:54:33;8.80;;;4.83;;
20379;SDS011;10349;48.666;8.948;2023-07-24T12:57:00;5.77;;;4.53;;
20379;SDS011;10349;48.666;8.948;2023-07-24T12:59:26;7.03;;;4.50;;
20379;SDS011;10349;48.666;8.948;2023-07-24T13:01:52;4.53;;;4.10;;
20379;SDS011;10349;48.666;8.948;2023-07-24T13:04:19;5.07;;;4.17;;
20379;SDS011;10349;48.666;8.948;2023-07-24T13:06:45;5.50;;;4.30;;
20379;SDS011;10349;48.666;8.948;2023-07-24T13:09:11;4.67;;;3.20;;
20379;SDS011;10349;48.666;8.948;2023-07-24T13:11:36;4.17;;;3.77;;
20379;SDS011;10349;48.666;8.948;2023-07-24T13:14:02;5.33;;;4.17;;
20379;SDS011;10349;48.666;8.948;2023-07-24T13:16:28;3.93;;;3.63;;
20379;SDS011;10349;48.666;8.948;2023-07-24T13:18:54;6.50;;;4.10;;
20379;SDS011;10349;48.666;8.948;2023-07-24T13:21:20;4.13;;;3.67;;
20379;SDS011;10349;48.666;8.948;2023-07-24T13:23:46;4.10;;;3.73;;
20379;SDS011;10349;48.666;8.948;2023-07-24T13:26:12;4.60;;;3.90;;
20379;SDS011;10349;48.666;8.948;2023-07-24T13:28:39;4.53;;;3.80;;
20379;SDS011;10349;48.666;8.948;2023-07-24T13:31:18;4.17;;;3.77;;
20379;SDS011;10349;48.666;8.948;2023-07-24T13:33:45;3.90;;;3.53;;
20379;SDS011;10349;48.666;8.948;2023-07-24T13:36:11;3.73;;;3.43;;
20379;SDS011;10349;48.666;8.948;2023-07-24T13:38:37;5.53;;;4.43;;
20379;SDS011;10349;48.666;8.948;2023-07-24T13:41:03;4.73;;;4.33;;
20379;SDS011;10349;48.666;8.948;2023-07-24T13:43:30;4.10;;;3.70;;
20379;SDS011;10349;48.666;8.948;2023-07-24T13:45:56;4.53;;;3.70;;
20379;SDS011;10349;48.666;8.948;2023-07-24T13:48:22;4.23;;;3.83;;
20379;SDS011;10349;48.666;8.948;2023-07-24T13:50:48;4.27;;;3.87;;
20379;SDS011;10349;48.666;8.948;2023-07-24T13:53:14;5.67;;;4.37;;
20379;SDS011;10349;48.666;8.948;2023-07-24T13:55:40;5.87;;;2.90;;
20379;SDS011;10349;48.666;8.948;2023-07-24T13:58:06;3.47;;;3.20;;
20379;SDS011;10349;48.666;8.948;2023-07-24T14:00:31;4.50;;;3.53;;
20379;SDS011;10349;48.666;8.948;2023-07-24T14:02:57;3.77;;;3.47;;
20379;SDS011;10349;48.666;8.948;2023-07-24T14:05:23;3.47;;;3.20;;
20379;SDS011;10349;48.666;8.948;2023-07-24T14:07:49;4.00;;;3.70;;
20379;SDS011;10349;48.666;8.948;2023-07-24T14:10:15;3.70;;;3.30;;
20379;SDS011;10349;48.666;8.948;2023-07-24T14:12:40;3.47;;;3.00;;
20379;SDS011;10349;48.666;8.948;2023-07-24T14:15:06;3.70;;;3.40;;
20379;SDS011;10349;48.666;8.948;2023-07-24T14:17:32;3.03;;;2.70;;
20379;SDS011;10349;48.666;8.948;2023-07-24T14:20:00;3.80;;;3.50;;
20379;SDS011;10349;48.666;8.948;2023-07-24T14:22:30;4.23;;;3.20;;
20379;SDS011;10349;48.666;8.948;2023-07-24T14:24:57;3.70;;;3.30;;
20379;SDS011;10349;48.666;8.948;2023-07-24T14:27:22;4.37;;;3.97;;
20379;SDS011;10349;48.666;8.948;2023-07-24T14:29:48;4.03;;;3.63;;
20379;SDS011;10349;48.666;8.948;2023-07-24T14:32:14;3.97;;;3.57;;
20379;SDS011;10349;48.666;8.948;2023-07-24T14:34:40;4.40;;;3.33;;
20379;SDS011;10349;48.666;8.948;2023-07-24T14:37:06;3.67;;;3.40;;
20379;SDS011;10349;48.666;8.948;2023-07-24T14:39:32;3.90;;;3.03;;
20379;SDS011;10349;48.666;8.948;2023-07-24T14:41:58;3.77;;;2.77;;
20379;SDS011;10349;48.666;8.948;2023-07-24T14:44:25;4.13;;;3.73;;
20379;SDS011;10349;48.666;8.948;2023-07-24T14:46:50;4.50;;;3.83;;